sensor_id;sensor_type;location;lat;lon;timestamp;P1;durP1;ratioP1;P2;durP2;ratioP2
12373;SDS011;6251;51.762;8.660;2023-04-03T01:03:26;2.33;;;1.50;;
12373;SDS011;6251;51.762;8.660;2023-04-03T01:13:30;2.30;;;1.40;;
12373;SDS011;6251;51.762;8.660;2023-04-03T02:55:05;2.63;;;1.53;;
12373;SDS011;6251;51.762;8.660;2023-04-03T04:06:08;2.17;;;1.63;;
12373;SDS011;6251;51.762;8.660;2023-04-03T04:16:09;3.30;;;1.87;;
12373;SDS011;6251;51.762;8.660;2023-04-03T04:26:10;1.93;;;1.30;;
12373;SDS011;6251;51.762;8.660;2023-04-03T04:36:10;2.40;;;1.50;;
12373;SDS011;6251;51.762;8.660;2023-04-03T04:46:11;4.60;;;1.80;;
12373;SDS011;6251;51.762;8.660;2023-04-03T04:56:12;1.67;;;1.47;;
12373;SDS011;6251;51.762;8.660;2023-04-03T05:06:12;2.50;;;1.40;;
12373;SDS011;6251;51.762;8.660;2023-04-03T05:16:13;2.80;;;1.40;;
12373;SDS011;6251;51.762;8.660;2023-04-03T05:26:13;1.70;;;1.60;;
12373;SDS011;6251;51.762;8.660;2023-04-03T05:36:14;3.77;;;1.37;;
12373;SDS011;6251;51.762;8.660;2023-04-03T05:46:16;1.50;;;1.40;;
12373;SDS011;6251;51.762;8.660;2023-04-03T05:56:18;2.17;;;1.90;;
12373;SDS011;6251;51.762;8.660;2023-04-03T06:06:25;4.27;;;1.63;;
12373;SDS011;6251;51.762;8.660;2023-04-03T06:16:30;2.30;;;1.70;;
12373;SDS011;6251;51.762;8.660;2023-04-03T06:26:32;3.60;;;1.80;;
12373;SDS011;6251;51.762;8.660;2023-04-03T06:36:33;4.27;;;2.00;;
12373;SDS011;6251;51.762;8.660;2023-04-03T06:46:35;2.10;;;1.67;;
12373;SDS011;6251;51.762;8.660;2023-04-03T06:56:35;3.47;;;2.20;;
12373;SDS011;6251;51.762;8.660;2023-04-03T07:06:36;4.23;;;2.43;;
12373;SDS011;6251;51.762;8.660;2023-04-03T07:16:37;4.03;;;2.33;;
12373;SDS011;6251;51.762;8.660;2023-04-03T07:26:37;2.93;;;2.10;;
12373;SDS011;6251;51.762;8.660;2023-04-03T07:36:38;3.33;;;2.00;;
12373;SDS011;6251;51.762;8.660;2023-04-03T07:46:39;3.00;;;1.80;;
12373;SDS011;6251;51.762;8.660;2023-04-03T07:56:40;2.20;;;2.10;;
12373;SDS011;6251;51.762;8.660;2023-04-03T08:06:42;3.07;;;1.57;;
12373;SDS011;6251;51.762;8.660;2023-04-03T08:16:43;2.97;;;1.50;;
12373;SDS011;6251;51.762;8.660;2023-04-03T08:26:45;2.30;;;1.50;;
12373;SDS011;6251;51.762;8.660;2023-04-03T08:36:46;3.70;;;1.60;;
12373;SDS011;6251;51.762;8.660;2023-04-03T08:57:12;2.00;;;1.13;;
12373;SDS011;6251;51.762;8.660;2023-04-03T09:07:14;3.83;;;1.20;;
12373;SDS011;6251;51.762;8.660;2023-04-03T09:27:27;1.10;;;1.03;;
12373;SDS011;6251;51.762;8.660;2023-04-03T09:37:38;2.27;;;0.93;;
12373;SDS011;6251;51.762;8.660;2023-04-03T09:47:44;2.67;;;1.10;;
12373;SDS011;6251;51.762;8.660;2023-04-03T09:57:45;1.05;;;1.00;;
12373;SDS011;6251;51.762;8.660;2023-04-03T10:07:46;1.55;;;1.02;;
12373;SDS011;6251;51.762;8.660;2023-04-03T10:17:49;0.90;;;0.90;;
12373;SDS011;6251;51.762;8.660;2023-04-03T10:27:59;2.15;;;1.27;;
12373;SDS011;6251;51.762;8.660;2023-04-03T10:38:54;0.90;;;0.90;;
12373;SDS011;6251;51.762;8.660;2023-04-03T10:49:10;0.95;;;0.82;;
12373;SDS011;6251;51.762;8.660;2023-04-03T10:59:31;0.60;;;0.60;;
12373;SDS011;6251;51.762;8.660;2023-04-03T11:09:54;1.00;;;1.00;;
12373;SDS011;6251;51.762;8.660;2023-04-03T11:20:10;2.35;;;0.95;;
12373;SDS011;6251;51.762;8.660;2023-04-03T11:40:29;1.80;;;1.02;;
12373;SDS011;6251;51.762;8.660;2023-04-03T12:10:55;4.15;;;1.70;;
12373;SDS011;6251;51.762;8.660;2023-04-03T12:21:13;2.70;;;1.42;;
12373;SDS011;6251;51.762;8.660;2023-04-03T12:31:18;1.52;;;1.40;;
12373;SDS011;6251;51.762;8.660;2023-04-03T12:51:37;2.78;;;1.30;;
12373;SDS011;6251;51.762;8.660;2023-04-03T13:01:40;3.25;;;1.17;;
12373;SDS011;6251;51.762;8.660;2023-04-03T13:11:40;1.10;;;1.00;;
12373;SDS011;6251;51.762;8.660;2023-04-03T13:21:43;1.20;;;1.10;;
12373;SDS011;6251;51.762;8.660;2023-04-03T13:31:45;1.12;;;0.90;;
12373;SDS011;6251;51.762;8.660;2023-04-03T13:41:47;1.00;;;0.90;;
12373;SDS011;6251;51.762;8.660;2023-04-03T13:51:49;1.58;;;1.27;;
12373;SDS011;6251;51.762;8.660;2023-04-03T14:01:53;1.42;;;1.15;;
12373;SDS011;6251;51.762;8.660;2023-04-03T14:12:08;1.23;;;1.10;;
12373;SDS011;6251;51.762;8.660;2023-04-03T14:22:17;2.33;;;1.25;;
12373;SDS011;6251;51.762;8.660;2023-04-03T14:32:26;1.52;;;1.10;;
12373;SDS011;6251;51.762;8.660;2023-04-03T14:42:31;1.35;;;1.25;;
12373;SDS011;6251;51.762;8.660;2023-04-03T14:52:34;1.70;;;0.93;;
12373;SDS011;6251;51.762;8.660;2023-04-03T15:02:36;2.10;;;1.17;;
12373;SDS011;6251;51.762;8.660;2023-04-03T15:12:38;1.00;;;1.00;;
12373;SDS011;6251;51.762;8.660;2023-04-03T15:22:38;1.92;;;1.20;;
12373;SDS011;6251;51.762;8.660;2023-04-03T15:32:39;2.15;;;1.45;;
12373;SDS011;6251;51.762;8.660;2023-04-03T15:42:39;1.30;;;1.15;;
12373;SDS011;6251;51.762;8.660;2023-04-03T15:52:40;1.17;;;1.17;;
12373;SDS011;6251;51.762;8.660;2023-04-03T16:02:41;3.28;;;1.33;;
12373;SDS011;6251;51.762;8.660;2023-04-03T16:12:43;3.70;;;1.40;;
12373;SDS011;6251;51.762;8.660;2023-04-03T16:22:45;2.50;;;1.40;;
12373;SDS011;6251;51.762;8.660;2023-04-03T16:32:45;1.87;;;1.40;;
12373;SDS011;6251;51.762;8.660;2023-04-03T16:42:46;1.80;;;1.40;;
12373;SDS011;6251;51.762;8.660;2023-04-03T16:52:47;1.20;;;1.20;;
12373;SDS011;6251;51.762;8.660;2023-04-03T17:02:47;2.60;;;1.40;;
12373;SDS011;6251;51.762;8.660;2023-04-03T17:12:48;1.85;;;1.20;;
12373;SDS011;6251;51.762;8.660;2023-04-03T17:22:49;1.42;;;1.10;;
12373;SDS011;6251;51.762;8.660;2023-04-03T17:32:49;1.50;;;1.33;;
12373;SDS011;6251;51.762;8.660;2023-04-03T17:42:50;1.83;;;1.52;;
12373;SDS011;6251;51.762;8.660;2023-04-03T17:52:51;1.83;;;1.58;;
12373;SDS011;6251;51.762;8.660;2023-04-03T18:02:57;4.03;;;2.37;;
12373;SDS011;6251;51.762;8.660;2023-04-03T18:12:57;3.28;;;2.50;;
12373;SDS011;6251;51.762;8.660;2023-04-03T18:22:58;1.90;;;1.70;;
12373;SDS011;6251;51.762;8.660;2023-04-03T18:32:59;3.20;;;2.20;;
12373;SDS011;6251;51.762;8.660;2023-04-03T18:43:00;2.33;;;2.07;;
12373;SDS011;6251;51.762;8.660;2023-04-03T18:53:01;1.92;;;1.83;;
12373;SDS011;6251;51.762;8.660;2023-04-03T19:03:02;3.00;;;2.60;;
12373;SDS011;6251;51.762;8.660;2023-04-03T19:13:03;3.60;;;2.67;;
12373;SDS011;6251;51.762;8.660;2023-04-03T19:23:04;5.17;;;3.50;;
12373;SDS011;6251;51.762;8.660;2023-04-03T19:33:05;6.77;;;4.17;;
12373;SDS011;6251;51.762;8.660;2023-04-03T19:43:06;5.70;;;4.80;;
12373;SDS011;6251;51.762;8.660;2023-04-03T19:53:07;4.50;;;3.43;;
12373;SDS011;6251;51.762;8.660;2023-04-03T20:03:13;7.10;;;5.93;;
12373;SDS011;6251;51.762;8.660;2023-04-03T20:13:14;7.37;;;5.23;;
12373;SDS011;6251;51.762;8.660;2023-04-03T20:23:15;5.70;;;5.20;;
12373;SDS011;6251;51.762;8.660;2023-04-03T20:33:19;4.40;;;3.90;;
12373;SDS011;6251;51.762;8.660;2023-04-03T20:43:21;4.43;;;4.03;;
12373;SDS011;6251;51.762;8.660;2023-04-03T20:53:22;3.43;;;2.93;;
12373;SDS011;6251;51.762;8.660;2023-04-03T23:05:28;5.43;;;4.10;;
